sensor_id;sensor_type;location;lat;lon;timestamp;P1;durP1;ratioP1;P2;durP2;ratioP2
79747;SDS011;69232;47.488;19.268;2023-08-01T00:00:59;2.25;;;1.70;;
79747;SDS011;69232;47.488;19.268;2023-08-01T00:03:25;4.88;;;2.05;;
79747;SDS011;69232;47.488;19.268;2023-08-01T00:05:51;4.68;;;1.92;;
79747;SDS011;69232;47.488;19.268;2023-08-01T00:08:17;5.80;;;2.08;;
79747;SDS011;69232;47.488;19.268;2023-08-01T00:10:42;8.60;;;2.00;;
79747;SDS011;69232;47.488;19.268;2023-08-01T00:13:08;3.08;;;1.80;;
79747;SDS011;69232;47.488;19.268;2023-08-01T00:15:33;2.90;;;1.80;;
79747;SDS011;69232;47.488;19.268;2023-08-01T00:17:59;4.18;;;1.88;;
79747;SDS011;69232;47.488;19.268;2023-08-01T00:20:24;4.82;;;2.97;;
79747;SDS011;69232;47.488;19.268;2023-08-01T00:22:50;4.53;;;2.20;;
79747;SDS011;69232;47.488;19.268;2023-08-01T00:25:16;2.42;;;1.98;;
79747;SDS011;69232;47.488;19.268;2023-08-01T00:27:42;5.55;;;2.10;;
79747;SDS011;69232;47.488;19.268;2023-08-01T00:30:08;10.90;;;1.98;;
79747;SDS011;69232;47.488;19.268;2023-08-01T00:32:34;4.38;;;1.90;;
79747;SDS011;69232;47.488;19.268;2023-08-01T00:35:00;10.20;;;2.22;;
79747;SDS011;69232;47.488;19.268;2023-08-01T00:37:25;5.03;;;2.05;;
79747;SDS011;69232;47.488;19.268;2023-08-01T00:39:51;4.30;;;2.10;;
79747;SDS011;69232;47.488;19.268;2023-08-01T00:42:16;3.63;;;2.15;;
79747;SDS011;69232;47.488;19.268;2023-08-01T00:44:42;4.00;;;1.95;;
79747;SDS011;69232;47.488;19.268;2023-08-01T00:47:07;3.97;;;1.90;;
79747;SDS011;69232;47.488;19.268;2023-08-01T00:49:33;4.50;;;1.95;;
79747;SDS011;69232;47.488;19.268;2023-08-01T00:51:59;3.55;;;2.20;;
79747;SDS011;69232;47.488;19.268;2023-08-01T00:54:25;4.18;;;2.08;;
79747;SDS011;69232;47.488;19.268;2023-08-01T00:56:50;3.55;;;2.30;;
79747;SDS011;69232;47.488;19.268;2023-08-01T00:59:16;2.97;;;1.90;;
79747;SDS011;69232;47.488;19.268;2023-08-01T01:01:41;4.60;;;2.20;;
79747;SDS011;69232;47.488;19.268;2023-08-01T01:04:06;2.88;;;1.90;;
79747;SDS011;69232;47.488;19.268;2023-08-01T01:06:45;3.53;;;2.17;;
79747;SDS011;69232;47.488;19.268;2023-08-01T01:09:16;4.72;;;1.80;;
79747;SDS011;69232;47.488;19.268;2023-08-01T01:11:43;3.85;;;1.85;;
79747;SDS011;69232;47.488;19.268;2023-08-01T01:14:09;5.40;;;2.10;;
79747;SDS011;69232;47.488;19.268;2023-08-01T01:16:34;1.98;;;1.70;;
79747;SDS011;69232;47.488;19.268;2023-08-01T01:19:00;3.95;;;1.98;;
79747;SDS011;69232;47.488;19.268;2023-08-01T01:21:32;3.67;;;2.35;;
79747;SDS011;69232;47.488;19.268;2023-08-01T01:24:35;2.97;;;1.75;;
79747;SDS011;69232;47.488;19.268;2023-08-01T01:27:01;6.32;;;2.20;;
79747;SDS011;69232;47.488;19.268;2023-08-01T01:29:29;3.95;;;2.15;;
79747;SDS011;69232;47.488;19.268;2023-08-01T01:31:55;6.82;;;1.90;;
79747;SDS011;69232;47.488;19.268;2023-08-01T01:34:21;5.18;;;2.08;;
79747;SDS011;69232;47.488;19.268;2023-08-01T01:36:47;5.15;;;2.05;;
79747;SDS011;69232;47.488;19.268;2023-08-01T01:39:12;2.63;;;1.70;;
79747;SDS011;69232;47.488;19.268;2023-08-01T01:41:37;4.90;;;2.00;;
79747;SDS011;69232;47.488;19.268;2023-08-01T01:44:03;7.43;;;2.55;;
79747;SDS011;69232;47.488;19.268;2023-08-01T01:46:28;2.50;;;1.73;;
79747;SDS011;69232;47.488;19.268;2023-08-01T01:48:54;5.88;;;2.00;;
79747;SDS011;69232;47.488;19.268;2023-08-01T01:51:20;4.05;;;2.15;;
79747;SDS011;69232;47.488;19.268;2023-08-01T01:53:46;4.88;;;2.05;;
79747;SDS011;69232;47.488;19.268;2023-08-01T01:56:11;7.68;;;3.58;;
79747;SDS011;69232;47.488;19.268;2023-08-01T01:58:37;7.63;;;2.63;;
79747;SDS011;69232;47.488;19.268;2023-08-01T02:01:02;3.80;;;2.10;;
79747;SDS011;69232;47.488;19.268;2023-08-01T02:03:28;3.45;;;2.20;;
79747;SDS011;69232;47.488;19.268;2023-08-01T02:05:53;2.65;;;1.80;;
79747;SDS011;69232;47.488;19.268;2023-08-01T02:08:19;6.00;;;2.10;;
79747;SDS011;69232;47.488;19.268;2023-08-01T02:10:44;5.55;;;2.78;;
79747;SDS011;69232;47.488;19.268;2023-08-01T02:13:10;2.92;;;1.60;;
79747;SDS011;69232;47.488;19.268;2023-08-01T02:15:35;3.50;;;2.00;;
79747;SDS011;69232;47.488;19.268;2023-08-01T02:18:02;5.28;;;2.40;;
79747;SDS011;69232;47.488;19.268;2023-08-01T02:20:28;3.63;;;2.13;;
79747;SDS011;69232;47.488;19.268;2023-08-01T02:22:54;5.03;;;2.03;;
79747;SDS011;69232;47.488;19.268;2023-08-01T02:25:19;3.53;;;2.13;;
79747;SDS011;69232;47.488;19.268;2023-08-01T02:27:44;6.75;;;2.70;;
79747;SDS011;69232;47.488;19.268;2023-08-01T02:30:10;4.38;;;2.28;;
79747;SDS011;69232;47.488;19.268;2023-08-01T02:32:36;5.20;;;2.10;;
79747;SDS011;69232;47.488;19.268;2023-08-01T02:35:01;2.63;;;1.90;;
79747;SDS011;69232;47.488;19.268;2023-08-01T02:37:27;2.88;;;1.63;;
79747;SDS011;69232;47.488;19.268;2023-08-01T02:39:52;4.65;;;2.40;;
79747;SDS011;69232;47.488;19.268;2023-08-01T02:42:18;6.05;;;3.05;;
79747;SDS011;69232;47.488;19.268;2023-08-01T02:44:43;4.55;;;2.38;;
79747;SDS011;69232;47.488;19.268;2023-08-01T02:47:08;4.88;;;2.50;;
79747;SDS011;69232;47.488;19.268;2023-08-01T02:49:34;5.28;;;2.95;;
79747;SDS011;69232;47.488;19.268;2023-08-01T02:51:59;4.10;;;1.90;;
79747;SDS011;69232;47.488;19.268;2023-08-01T02:54:25;5.88;;;2.20;;
79747;SDS011;69232;47.488;19.268;2023-08-01T02:56:50;6.97;;;2.30;;
79747;SDS011;69232;47.488;19.268;2023-08-01T02:59:16;4.10;;;1.90;;
79747;SDS011;69232;47.488;19.268;2023-08-01T03:01:43;5.25;;;2.30;;
79747;SDS011;69232;47.488;19.268;2023-08-01T03:04:09;4.50;;;2.15;;
79747;SDS011;69232;47.488;19.268;2023-08-01T03:06:37;4.50;;;2.33;;
79747;SDS011;69232;47.488;19.268;2023-08-01T03:09:03;5.15;;;2.28;;
79747;SDS011;69232;47.488;19.268;2023-08-01T03:11:28;5.93;;;2.28;;
79747;SDS011;69232;47.488;19.268;2023-08-01T03:13:54;4.63;;;2.78;;
79747;SDS011;69232;47.488;19.268;2023-08-01T03:16:19;6.32;;;2.05;;
79747;SDS011;69232;47.488;19.268;2023-08-01T03:18:45;5.30;;;2.72;;
79747;SDS011;69232;47.488;19.268;2023-08-01T03:21:10;2.65;;;2.00;;
79747;SDS011;69232;47.488;19.268;2023-08-01T03:23:36;3.42;;;2.30;;
79747;SDS011;69232;47.488;19.268;2023-08-01T03:26:02;6.50;;;2.08;;
79747;SDS011;69232;47.488;19.268;2023-08-01T03:28:27;6.50;;;2.25;;
79747;SDS011;69232;47.488;19.268;2023-08-01T03:30:53;3.10;;;2.13;;
79747;SDS011;69232;47.488;19.268;2023-08-01T03:33:19;6.63;;;2.45;;
79747;SDS011;69232;47.488;19.268;2023-08-01T03:35:45;6.15;;;2.50;;
79747;SDS011;69232;47.488;19.268;2023-08-01T03:38:11;5.05;;;2.30;;
79747;SDS011;69232;47.488;19.268;2023-08-01T03:40:36;4.28;;;2.30;;
79747;SDS011;69232;47.488;19.268;2023-08-01T03:43:02;6.80;;;2.28;;
79747;SDS011;69232;47.488;19.268;2023-08-01T03:45:27;3.42;;;2.15;;
79747;SDS011;69232;47.488;19.268;2023-08-01T03:47:52;5.28;;;2.55;;
79747;SDS011;69232;47.488;19.268;2023-08-01T03:50:18;7.45;;;2.30;;
79747;SDS011;69232;47.488;19.268;2023-08-01T03:52:43;6.05;;;2.55;;
79747;SDS011;69232;47.488;19.268;2023-08-01T03:55:10;4.10;;;2.63;;
79747;SDS011;69232;47.488;19.268;2023-08-01T03:57:35;3.95;;;2.50;;
79747;SDS011;69232;47.488;19.268;2023-08-01T04:00:01;5.80;;;1.98;;
79747;SDS011;69232;47.488;19.268;2023-08-01T04:02:28;4.55;;;2.35;;
79747;SDS011;69232;47.488;19.268;2023-08-01T04:04:53;5.90;;;2.72;;
79747;SDS011;69232;47.488;19.268;2023-08-01T04:07:18;4.60;;;2.58;;
79747;SDS011;69232;47.488;19.268;2023-08-01T04:09:44;6.43;;;2.78;;
79747;SDS011;69232;47.488;19.268;2023-08-01T04:12:09;6.20;;;2.28;;
79747;SDS011;69232;47.488;19.268;2023-08-01T04:14:35;7.82;;;2.58;;
79747;SDS011;69232;47.488;19.268;2023-08-01T04:17:00;4.80;;;2.50;;
79747;SDS011;69232;47.488;19.268;2023-08-01T04:19:25;7.60;;;2.40;;
79747;SDS011;69232;47.488;19.268;2023-08-01T04:21:51;8.07;;;2.90;;
79747;SDS011;69232;47.488;19.268;2023-08-01T04:24:16;5.82;;;2.33;;
79747;SDS011;69232;47.488;19.268;2023-08-01T04:26:42;6.32;;;2.70;;
79747;SDS011;69232;47.488;19.268;2023-08-01T04:29:07;6.65;;;2.67;;
79747;SDS011;69232;47.488;19.268;2023-08-01T04:31:33;6.53;;;3.13;;
79747;SDS011;69232;47.488;19.268;2023-08-01T04:33:58;3.40;;;2.38;;
79747;SDS011;69232;47.488;19.268;2023-08-01T04:36:23;10.77;;;2.97;;
79747;SDS011;69232;47.488;19.268;2023-08-01T04:38:49;8.48;;;2.92;;
79747;SDS011;69232;47.488;19.268;2023-08-01T04:41:14;8.10;;;2.97;;
79747;SDS011;69232;47.488;19.268;2023-08-01T04:43:40;5.57;;;2.67;;
79747;SDS011;69232;47.488;19.268;2023-08-01T04:46:05;6.10;;;3.03;;
79747;SDS011;69232;47.488;19.268;2023-08-01T04:48:31;6.78;;;2.80;;
79747;SDS011;69232;47.488;19.268;2023-08-01T04:50:56;8.05;;;2.92;;
79747;SDS011;69232;47.488;19.268;2023-08-01T04:53:22;4.15;;;2.47;;
79747;SDS011;69232;47.488;19.268;2023-08-01T04:55:47;5.45;;;2.97;;
79747;SDS011;69232;47.488;19.268;2023-08-01T04:58:13;13.52;;;2.75;;
79747;SDS011;69232;47.488;19.268;2023-08-01T05:00:40;6.25;;;2.72;;
79747;SDS011;69232;47.488;19.268;2023-08-01T05:03:06;6.85;;;3.05;;
79747;SDS011;69232;47.488;19.268;2023-08-01T05:05:31;6.20;;;2.58;;
79747;SDS011;69232;47.488;19.268;2023-08-01T05:07:57;5.00;;;2.72;;
79747;SDS011;69232;47.488;19.268;2023-08-01T05:10:22;6.75;;;3.10;;
79747;SDS011;69232;47.488;19.268;2023-08-01T05:12:47;5.18;;;2.70;;
79747;SDS011;69232;47.488;19.268;2023-08-01T05:15:13;6.03;;;2.70;;
79747;SDS011;69232;47.488;19.268;2023-08-01T05:17:38;8.02;;;2.70;;
79747;SDS011;69232;47.488;19.268;2023-08-01T05:20:04;6.15;;;2.92;;
79747;SDS011;69232;47.488;19.268;2023-08-01T05:22:30;5.38;;;2.40;;
79747;SDS011;69232;47.488;19.268;2023-08-01T05:24:55;10.82;;;3.10;;
79747;SDS011;69232;47.488;19.268;2023-08-01T05:27:21;5.68;;;2.35;;
79747;SDS011;69232;47.488;19.268;2023-08-01T05:29:46;10.25;;;3.33;;
79747;SDS011;69232;47.488;19.268;2023-08-01T05:32:12;5.53;;;2.38;;
79747;SDS011;69232;47.488;19.268;2023-08-01T05:34:37;3.67;;;2.60;;
79747;SDS011;69232;47.488;19.268;2023-08-01T05:37:03;4.35;;;2.58;;
79747;SDS011;69232;47.488;19.268;2023-08-01T05:39:29;9.25;;;2.75;;
79747;SDS011;69232;47.488;19.268;2023-08-01T05:41:54;8.15;;;2.78;;
79747;SDS011;69232;47.488;19.268;2023-08-01T05:44:19;3.13;;;2.33;;
79747;SDS011;69232;47.488;19.268;2023-08-01T05:46:45;4.05;;;2.50;;
79747;SDS011;69232;47.488;19.268;2023-08-01T05:49:10;3.70;;;2.30;;
79747;SDS011;69232;47.488;19.268;2023-08-01T05:51:35;7.55;;;2.40;;
79747;SDS011;69232;47.488;19.268;2023-08-01T05:54:01;6.47;;;2.10;;
79747;SDS011;69232;47.488;19.268;2023-08-01T05:56:27;4.35;;;2.28;;
79747;SDS011;69232;47.488;19.268;2023-08-01T05:58:52;6.40;;;3.30;;
79747;SDS011;69232;47.488;19.268;2023-08-01T06:01:18;9.57;;;2.50;;
79747;SDS011;69232;47.488;19.268;2023-08-01T06:03:44;5.80;;;2.33;;
79747;SDS011;69232;47.488;19.268;2023-08-01T06:06:10;4.15;;;2.40;;
79747;SDS011;69232;47.488;19.268;2023-08-01T06:08:35;4.32;;;2.40;;
79747;SDS011;69232;47.488;19.268;2023-08-01T06:11:00;6.10;;;2.45;;
79747;SDS011;69232;47.488;19.268;2023-08-01T06:13:26;5.53;;;2.72;;
79747;SDS011;69232;47.488;19.268;2023-08-01T06:15:52;8.60;;;2.47;;
79747;SDS011;69232;47.488;19.268;2023-08-01T06:18:17;7.70;;;2.50;;
79747;SDS011;69232;47.488;19.268;2023-08-01T06:20:42;3.88;;;2.22;;
79747;SDS011;69232;47.488;19.268;2023-08-01T06:23:08;4.72;;;2.10;;
79747;SDS011;69232;47.488;19.268;2023-08-01T06:25:33;6.80;;;2.83;;
79747;SDS011;69232;47.488;19.268;2023-08-01T06:27:59;3.15;;;2.15;;
79747;SDS011;69232;47.488;19.268;2023-08-01T06:30:24;3.22;;;2.10;;
79747;SDS011;69232;47.488;19.268;2023-08-01T06:32:49;6.07;;;1.98;;
79747;SDS011;69232;47.488;19.268;2023-08-01T06:35:15;3.50;;;1.88;;
79747;SDS011;69232;47.488;19.268;2023-08-01T06:37:40;5.72;;;2.22;;
79747;SDS011;69232;47.488;19.268;2023-08-01T06:40:06;4.32;;;2.10;;
79747;SDS011;69232;47.488;19.268;2023-08-01T06:42:33;6.20;;;2.30;;
79747;SDS011;69232;47.488;19.268;2023-08-01T06:44:58;4.65;;;2.28;;
79747;SDS011;69232;47.488;19.268;2023-08-01T06:47:23;4.40;;;2.13;;
79747;SDS011;69232;47.488;19.268;2023-08-01T06:49:49;4.45;;;2.17;;
79747;SDS011;69232;47.488;19.268;2023-08-01T06:52:15;6.10;;;2.13;;
79747;SDS011;69232;47.488;19.268;2023-08-01T06:54:40;8.10;;;2.30;;
79747;SDS011;69232;47.488;19.268;2023-08-01T06:57:06;3.65;;;2.05;;
79747;SDS011;69232;47.488;19.268;2023-08-01T06:59:32;3.70;;;2.13;;
79747;SDS011;69232;47.488;19.268;2023-08-01T07:01:57;5.13;;;2.00;;
79747;SDS011;69232;47.488;19.268;2023-08-01T07:04:22;4.20;;;2.40;;
79747;SDS011;69232;47.488;19.268;2023-08-01T07:06:48;6.47;;;2.45;;
79747;SDS011;69232;47.488;19.268;2023-08-01T07:09:14;3.92;;;1.77;;
79747;SDS011;69232;47.488;19.268;2023-08-01T07:11:40;6.03;;;2.03;;
79747;SDS011;69232;47.488;19.268;2023-08-01T07:14:05;3.33;;;1.98;;
79747;SDS011;69232;47.488;19.268;2023-08-01T07:16:31;4.05;;;1.60;;
79747;SDS011;69232;47.488;19.268;2023-08-01T07:18:57;5.30;;;2.17;;
79747;SDS011;69232;47.488;19.268;2023-08-01T07:21:24;3.58;;;1.98;;
79747;SDS011;69232;47.488;19.268;2023-08-01T07:23:50;3.45;;;1.65;;
79747;SDS011;69232;47.488;19.268;2023-08-01T07:26:15;5.45;;;2.00;;
79747;SDS011;69232;47.488;19.268;2023-08-01T07:28:40;5.00;;;1.85;;
79747;SDS011;69232;47.488;19.268;2023-08-01T07:31:06;3.83;;;1.90;;
79747;SDS011;69232;47.488;19.268;2023-08-01T07:33:32;4.13;;;1.92;;
79747;SDS011;69232;47.488;19.268;2023-08-01T07:35:58;2.72;;;1.80;;
79747;SDS011;69232;47.488;19.268;2023-08-01T07:38:24;4.32;;;1.90;;
79747;SDS011;69232;47.488;19.268;2023-08-01T07:40:50;3.78;;;1.65;;
79747;SDS011;69232;47.488;19.268;2023-08-01T07:43:15;3.92;;;1.75;;
79747;SDS011;69232;47.488;19.268;2023-08-01T07:45:41;3.92;;;2.08;;
79747;SDS011;69232;47.488;19.268;2023-08-01T07:48:06;4.10;;;1.95;;
79747;SDS011;69232;47.488;19.268;2023-08-01T07:50:32;4.97;;;1.73;;
79747;SDS011;69232;47.488;19.268;2023-08-01T07:52:57;4.50;;;1.85;;
79747;SDS011;69232;47.488;19.268;2023-08-01T07:55:23;9.10;;;2.15;;
79747;SDS011;69232;47.488;19.268;2023-08-01T07:57:48;2.90;;;1.83;;
79747;SDS011;69232;47.488;19.268;2023-08-01T08:00:14;4.18;;;1.92;;
79747;SDS011;69232;47.488;19.268;2023-08-01T08:02:41;4.78;;;2.00;;
79747;SDS011;69232;47.488;19.268;2023-08-01T08:05:07;3.28;;;2.05;;
79747;SDS011;69232;47.488;19.268;2023-08-01T08:07:33;3.58;;;1.50;;
79747;SDS011;69232;47.488;19.268;2023-08-01T08:09:58;3.42;;;1.60;;
79747;SDS011;69232;47.488;19.268;2023-08-01T08:12:24;3.17;;;1.75;;
79747;SDS011;69232;47.488;19.268;2023-08-01T08:14:50;10.50;;;2.05;;
79747;SDS011;69232;47.488;19.268;2023-08-01T08:17:15;3.42;;;1.80;;
79747;SDS011;69232;47.488;19.268;2023-08-01T08:19:41;4.63;;;2.17;;
79747;SDS011;69232;47.488;19.268;2023-08-01T08:22:06;4.00;;;1.98;;
79747;SDS011;69232;47.488;19.268;2023-08-01T08:24:32;4.82;;;1.80;;
79747;SDS011;69232;47.488;19.268;2023-08-01T08:26:57;3.72;;;1.77;;
79747;SDS011;69232;47.488;19.268;2023-08-01T08:29:24;2.53;;;2.05;;
79747;SDS011;69232;47.488;19.268;2023-08-01T08:31:50;2.47;;;1.75;;
79747;SDS011;69232;47.488;19.268;2023-08-01T08:34:15;3.85;;;1.65;;
79747;SDS011;69232;47.488;19.268;2023-08-01T08:36:40;3.13;;;1.70;;
79747;SDS011;69232;47.488;19.268;2023-08-01T08:39:06;5.40;;;1.80;;
79747;SDS011;69232;47.488;19.268;2023-08-01T08:41:35;2.78;;;2.10;;
79747;SDS011;69232;47.488;19.268;2023-08-01T08:46:29;3.33;;;1.92;;
79747;SDS011;69232;47.488;19.268;2023-08-01T08:48:55;2.83;;;1.92;;
79747;SDS011;69232;47.488;19.268;2023-08-01T08:51:22;3.83;;;1.75;;
79747;SDS011;69232;47.488;19.268;2023-08-01T08:53:50;3.88;;;1.80;;
79747;SDS011;69232;47.488;19.268;2023-08-01T08:56:18;2.45;;;1.63;;
79747;SDS011;69232;47.488;19.268;2023-08-01T08:58:43;3.05;;;2.00;;
79747;SDS011;69232;47.488;19.268;2023-08-01T09:01:09;6.80;;;1.95;;
79747;SDS011;69232;47.488;19.268;2023-08-01T09:03:34;2.80;;;1.83;;
79747;SDS011;69232;47.488;19.268;2023-08-01T09:06:06;5.05;;;2.03;;
79747;SDS011;69232;47.488;19.268;2023-08-01T09:08:36;2.38;;;1.70;;
79747;SDS011;69232;47.488;19.268;2023-08-01T09:11:04;3.58;;;1.90;;
79747;SDS011;69232;47.488;19.268;2023-08-01T09:13:30;5.65;;;1.88;;
79747;SDS011;69232;47.488;19.268;2023-08-01T09:15:56;1.75;;;1.35;;
79747;SDS011;69232;47.488;19.268;2023-08-01T09:18:21;4.32;;;1.60;;
79747;SDS011;69232;47.488;19.268;2023-08-01T09:20:47;3.45;;;1.65;;
79747;SDS011;69232;47.488;19.268;2023-08-01T09:23:14;1.90;;;1.70;;
79747;SDS011;69232;47.488;19.268;2023-08-01T09:25:40;4.10;;;1.58;;
79747;SDS011;69232;47.488;19.268;2023-08-01T09:28:16;3.08;;;1.70;;
79747;SDS011;69232;47.488;19.268;2023-08-01T09:30:49;2.60;;;1.67;;
79747;SDS011;69232;47.488;19.268;2023-08-01T09:33:20;3.65;;;1.80;;
79747;SDS011;69232;47.488;19.268;2023-08-01T09:35:46;4.43;;;2.00;;
79747;SDS011;69232;47.488;19.268;2023-08-01T09:38:12;3.83;;;1.85;;
79747;SDS011;69232;47.488;19.268;2023-08-01T09:40:39;4.60;;;1.98;;
79747;SDS011;69232;47.488;19.268;2023-08-01T09:43:05;3.83;;;1.50;;
79747;SDS011;69232;47.488;19.268;2023-08-01T09:45:30;5.13;;;2.00;;
79747;SDS011;69232;47.488;19.268;2023-08-01T09:47:56;2.80;;;1.77;;
79747;SDS011;69232;47.488;19.268;2023-08-01T09:50:22;4.47;;;1.70;;
79747;SDS011;69232;47.488;19.268;2023-08-01T09:52:49;5.15;;;1.88;;
79747;SDS011;69232;47.488;19.268;2023-08-01T09:55:31;4.70;;;1.50;;
79747;SDS011;69232;47.488;19.268;2023-08-01T09:57:57;3.33;;;1.70;;
79747;SDS011;69232;47.488;19.268;2023-08-01T10:00:30;4.75;;;1.60;;
79747;SDS011;69232;47.488;19.268;2023-08-01T10:02:57;3.55;;;1.63;;
79747;SDS011;69232;47.488;19.268;2023-08-01T10:05:25;2.92;;;1.88;;
79747;SDS011;69232;47.488;19.268;2023-08-01T10:07:54;5.82;;;2.00;;
79747;SDS011;69232;47.488;19.268;2023-08-01T10:10:22;3.00;;;2.03;;
79747;SDS011;69232;47.488;19.268;2023-08-01T10:12:48;5.13;;;1.80;;
79747;SDS011;69232;47.488;19.268;2023-08-01T10:15:15;2.72;;;1.75;;
79747;SDS011;69232;47.488;19.268;2023-08-01T10:17:41;4.50;;;2.00;;
79747;SDS011;69232;47.488;19.268;2023-08-01T10:20:06;3.83;;;1.70;;
79747;SDS011;69232;47.488;19.268;2023-08-01T10:22:32;7.13;;;1.92;;
79747;SDS011;69232;47.488;19.268;2023-08-01T10:24:58;2.10;;;1.65;;
79747;SDS011;69232;47.488;19.268;2023-08-01T10:27:24;3.13;;;1.70;;
79747;SDS011;69232;47.488;19.268;2023-08-01T10:29:56;1.88;;;1.75;;
79747;SDS011;69232;47.488;19.268;2023-08-01T10:32:32;5.93;;;1.60;;
79747;SDS011;69232;47.488;19.268;2023-08-01T10:34:59;2.85;;;1.30;;
79747;SDS011;69232;47.488;19.268;2023-08-01T10:37:25;5.55;;;1.65;;
79747;SDS011;69232;47.488;19.268;2023-08-01T10:39:57;3.03;;;1.90;;
79747;SDS011;69232;47.488;19.268;2023-08-01T10:42:23;3.08;;;1.75;;
79747;SDS011;69232;47.488;19.268;2023-08-01T10:44:49;3.47;;;1.80;;
79747;SDS011;69232;47.488;19.268;2023-08-01T10:47:15;2.65;;;1.70;;
79747;SDS011;69232;47.488;19.268;2023-08-01T10:49:50;2.58;;;1.58;;
79747;SDS011;69232;47.488;19.268;2023-08-01T10:52:19;3.47;;;1.60;;
79747;SDS011;69232;47.488;19.268;2023-08-01T10:54:55;3.05;;;1.60;;
79747;SDS011;69232;47.488;19.268;2023-08-01T10:57:26;2.58;;;1.50;;
79747;SDS011;69232;47.488;19.268;2023-08-01T10:59:53;2.50;;;1.60;;
79747;SDS011;69232;47.488;19.268;2023-08-01T11:02:20;4.03;;;1.90;;
79747;SDS011;69232;47.488;19.268;2023-08-01T11:07:23;8.55;;;1.45;;
79747;SDS011;69232;47.488;19.268;2023-08-01T11:09:48;5.18;;;1.55;;
79747;SDS011;69232;47.488;19.268;2023-08-01T11:12:14;2.15;;;1.45;;
79747;SDS011;69232;47.488;19.268;2023-08-01T11:14:39;5.10;;;2.13;;
79747;SDS011;69232;47.488;19.268;2023-08-01T11:17:05;3.50;;;1.92;;
79747;SDS011;69232;47.488;19.268;2023-08-01T11:19:30;1.95;;;1.42;;
79747;SDS011;69232;47.488;19.268;2023-08-01T11:21:56;3.30;;;1.60;;
79747;SDS011;69232;47.488;19.268;2023-08-01T11:24:22;3.90;;;1.75;;
79747;SDS011;69232;47.488;19.268;2023-08-01T11:26:49;2.53;;;1.80;;
79747;SDS011;69232;47.488;19.268;2023-08-01T11:29:15;2.78;;;1.80;;
79747;SDS011;69232;47.488;19.268;2023-08-01T11:31:51;2.28;;;1.50;;
79747;SDS011;69232;47.488;19.268;2023-08-01T11:34:20;2.65;;;1.42;;
79747;SDS011;69232;47.488;19.268;2023-08-01T11:36:46;3.42;;;1.48;;
79747;SDS011;69232;47.488;19.268;2023-08-01T11:39:12;4.15;;;1.73;;
79747;SDS011;69232;47.488;19.268;2023-08-01T11:41:38;5.75;;;2.13;;
79747;SDS011;69232;47.488;19.268;2023-08-01T11:44:03;2.83;;;1.65;;
79747;SDS011;69232;47.488;19.268;2023-08-01T11:46:33;4.28;;;1.50;;
79747;SDS011;69232;47.488;19.268;2023-08-01T11:48:59;2.05;;;1.48;;
79747;SDS011;69232;47.488;19.268;2023-08-01T11:51:28;1.65;;;1.42;;
79747;SDS011;69232;47.488;19.268;2023-08-01T11:54:01;2.80;;;1.48;;
79747;SDS011;69232;47.488;19.268;2023-08-01T11:56:27;2.90;;;1.58;;
79747;SDS011;69232;47.488;19.268;2023-08-01T11:58:53;1.92;;;1.40;;
79747;SDS011;69232;47.488;19.268;2023-08-01T12:01:18;3.47;;;1.38;;
79747;SDS011;69232;47.488;19.268;2023-08-01T12:03:47;2.28;;;1.48;;
79747;SDS011;69232;47.488;19.268;2023-08-01T12:06:13;4.32;;;1.50;;
79747;SDS011;69232;47.488;19.268;2023-08-01T12:08:41;4.20;;;2.35;;
79747;SDS011;69232;47.488;19.268;2023-08-01T12:11:40;3.75;;;1.92;;
79747;SDS011;69232;47.488;19.268;2023-08-01T12:13:59;2.97;;;1.55;;
79747;SDS011;69232;47.488;19.268;2023-08-01T12:16:45;2.25;;;1.52;;
79747;SDS011;69232;47.488;19.268;2023-08-01T12:19:16;1.98;;;1.50;;
79747;SDS011;69232;47.488;19.268;2023-08-01T12:21:43;2.45;;;1.52;;
79747;SDS011;69232;47.488;19.268;2023-08-01T12:24:09;4.97;;;1.90;;
79747;SDS011;69232;47.488;19.268;2023-08-01T12:26:34;4.50;;;1.50;;
79747;SDS011;69232;47.488;19.268;2023-08-01T12:29:00;2.88;;;1.58;;
79747;SDS011;69232;47.488;19.268;2023-08-01T12:31:25;3.35;;;1.48;;
79747;SDS011;69232;47.488;19.268;2023-08-01T12:33:50;5.80;;;1.70;;
79747;SDS011;69232;47.488;19.268;2023-08-01T12:36:18;2.83;;;1.52;;
79747;SDS011;69232;47.488;19.268;2023-08-01T12:38:43;2.90;;;1.50;;
79747;SDS011;69232;47.488;19.268;2023-08-01T12:41:08;7.78;;;1.65;;
79747;SDS011;69232;47.488;19.268;2023-08-01T12:43:34;1.98;;;1.33;;
79747;SDS011;69232;47.488;19.268;2023-08-01T12:45:59;2.60;;;1.70;;
79747;SDS011;69232;47.488;19.268;2023-08-01T12:48:25;2.60;;;1.40;;
79747;SDS011;69232;47.488;19.268;2023-08-01T12:50:51;3.50;;;1.60;;
79747;SDS011;69232;47.488;19.268;2023-08-01T12:53:16;3.03;;;1.48;;
79747;SDS011;69232;47.488;19.268;2023-08-01T12:55:43;2.55;;;1.40;;
79747;SDS011;69232;47.488;19.268;2023-08-01T12:58:09;3.70;;;1.77;;
79747;SDS011;69232;47.488;19.268;2023-08-01T13:00:35;3.88;;;1.58;;
79747;SDS011;69232;47.488;19.268;2023-08-01T13:03:00;2.65;;;1.23;;
79747;SDS011;69232;47.488;19.268;2023-08-01T13:05:26;15.23;;;2.15;;
79747;SDS011;69232;47.488;19.268;2023-08-01T13:07:51;2.63;;;1.50;;
79747;SDS011;69232;47.488;19.268;2023-08-01T13:10:17;5.43;;;1.55;;
79747;SDS011;69232;47.488;19.268;2023-08-01T13:12:42;2.95;;;1.60;;
79747;SDS011;69232;47.488;19.268;2023-08-01T13:15:08;4.20;;;1.58;;
79747;SDS011;69232;47.488;19.268;2023-08-01T13:17:34;4.10;;;1.60;;
79747;SDS011;69232;47.488;19.268;2023-08-01T13:19:59;3.08;;;1.60;;
79747;SDS011;69232;47.488;19.268;2023-08-01T13:22:25;3.58;;;1.42;;
79747;SDS011;69232;47.488;19.268;2023-08-01T13:24:50;2.65;;;1.52;;
79747;SDS011;69232;47.488;19.268;2023-08-01T13:27:16;4.60;;;1.52;;
79747;SDS011;69232;47.488;19.268;2023-08-01T13:29:41;3.35;;;1.50;;
79747;SDS011;69232;47.488;19.268;2023-08-01T13:32:06;2.67;;;1.38;;
79747;SDS011;69232;47.488;19.268;2023-08-01T13:34:32;6.65;;;1.77;;
79747;SDS011;69232;47.488;19.268;2023-08-01T13:36:57;3.13;;;1.48;;
79747;SDS011;69232;47.488;19.268;2023-08-01T13:39:23;2.60;;;1.67;;
79747;SDS011;69232;47.488;19.268;2023-08-01T13:41:49;3.63;;;1.40;;
79747;SDS011;69232;47.488;19.268;2023-08-01T13:44:14;2.20;;;1.40;;
79747;SDS011;69232;47.488;19.268;2023-08-01T13:46:39;3.20;;;1.58;;
79747;SDS011;69232;47.488;19.268;2023-08-01T13:49:05;2.03;;;1.40;;
79747;SDS011;69232;47.488;19.268;2023-08-01T13:51:31;2.00;;;1.60;;
79747;SDS011;69232;47.488;19.268;2023-08-01T13:53:57;4.53;;;1.30;;
79747;SDS011;69232;47.488;19.268;2023-08-01T13:56:24;1.88;;;1.27;;
79747;SDS011;69232;47.488;19.268;2023-08-01T13:58:50;4.80;;;1.50;;
79747;SDS011;69232;47.488;19.268;2023-08-01T14:01:16;3.40;;;1.40;;
79747;SDS011;69232;47.488;19.268;2023-08-01T14:03:41;2.15;;;1.48;;
79747;SDS011;69232;47.488;19.268;2023-08-01T14:06:10;2.72;;;1.42;;
79747;SDS011;69232;47.488;19.268;2023-08-01T14:11:05;6.90;;;1.48;;
79747;SDS011;69232;47.488;19.268;2023-08-01T14:13:34;2.83;;;1.48;;
79747;SDS011;69232;47.488;19.268;2023-08-01T14:16:00;4.75;;;1.75;;
79747;SDS011;69232;47.488;19.268;2023-08-01T14:18:27;3.75;;;1.50;;
79747;SDS011;69232;47.488;19.268;2023-08-01T14:20:52;2.30;;;1.30;;
79747;SDS011;69232;47.488;19.268;2023-08-01T14:23:18;3.20;;;1.33;;
79747;SDS011;69232;47.488;19.268;2023-08-01T14:25:44;3.80;;;1.77;;
79747;SDS011;69232;47.488;19.268;2023-08-01T14:28:09;3.63;;;1.45;;
79747;SDS011;69232;47.488;19.268;2023-08-01T14:30:36;5.68;;;1.92;;
79747;SDS011;69232;47.488;19.268;2023-08-01T14:33:02;3.08;;;1.50;;
79747;SDS011;69232;47.488;19.268;2023-08-01T14:35:28;4.22;;;1.33;;